sensor_id;sensor_type;location;lat;lon;timestamp;temperature;humidity
70151;DHT22;57517;43.562;19.540;2022-08-16T00:01:00;512.40;2278.40
70151;DHT22;57517;43.562;19.540;2022-08-16T00:03:26;512.40;2278.40
70151;DHT22;57517;43.562;19.540;2022-08-16T00:05:52;512.60;2252.80
70151;DHT22;57517;43.562;19.540;2022-08-16T00:08:19;512.30;2304.00
70151;DHT22;57517;43.562;19.540;2022-08-16T00:10:45;512.30;2304.00
70151;DHT22;57517;43.562;19.540;2022-08-16T00:13:11;512.20;2304.00
70151;DHT22;57517;43.562;19.540;2022-08-16T00:15:44;512.10;2304.00
70151;DHT22;57517;43.562;19.540;2022-08-16T00:18:10;487.30;2329.60
70151;DHT22;57517;43.562;19.540;2022-08-16T00:20:38;512.10;2304.00
70151;DHT22;57517;43.562;19.540;2022-08-16T00:23:05;512.20;2304.00
70151;DHT22;57517;43.562;19.540;2022-08-16T00:25:31;512.50;2252.80
70151;DHT22;57517;43.562;19.540;2022-08-16T00:27:58;512.60;2252.80
70151;DHT22;57517;43.562;19.540;2022-08-16T00:30:24;512.60;2252.80
70151;DHT22;57517;43.562;19.540;2022-08-16T00:32:53;512.30;2278.40
70151;DHT22;57517;43.562;19.540;2022-08-16T00:35:25;512.10;2304.00
70151;DHT22;57517;43.562;19.540;2022-08-16T00:37:51;512.00;2304.00
70151;DHT22;57517;43.562;19.540;2022-08-16T00:40:30;487.20;2329.60
70151;DHT22;57517;43.562;19.540;2022-08-16T00:42:56;486.80;2380.80
70151;DHT22;57517;43.562;19.540;2022-08-16T00:48:09;486.90;2355.20
70151;DHT22;57517;43.562;19.540;2022-08-16T00:50:37;486.90;2355.20
70151;DHT22;57517;43.562;19.540;2022-08-16T00:53:09;486.80;2380.80
70151;DHT22;57517;43.562;19.540;2022-08-16T00:55:37;486.80;2380.80
70151;DHT22;57517;43.562;19.540;2022-08-16T00:58:05;486.90;2380.80
70151;DHT22;57517;43.562;19.540;2022-08-16T01:00:32;486.90;2380.80
70151;DHT22;57517;43.562;19.540;2022-08-16T01:03:05;487.10;2355.20
70151;DHT22;57517;43.562;19.540;2022-08-16T01:05:33;486.90;2355.20
70151;DHT22;57517;43.562;19.540;2022-08-16T01:08:00;487.00;2355.20
70151;DHT22;57517;43.562;19.540;2022-08-16T01:10:29;487.20;2329.60
70151;DHT22;57517;43.562;19.540;2022-08-16T01:12:55;512.00;2329.60
70151;DHT22;57517;43.562;19.540;2022-08-16T01:15:22;512.10;2304.00
70151;DHT22;57517;43.562;19.540;2022-08-16T01:17:48;512.20;2278.40
70151;DHT22;57517;43.562;19.540;2022-08-16T01:20:17;512.00;2329.60
70151;DHT22;57517;43.562;19.540;2022-08-16T01:23:00;487.20;2329.60
70151;DHT22;57517;43.562;19.540;2022-08-16T01:25:34;487.10;2329.60
70151;DHT22;57517;43.562;19.540;2022-08-16T01:28:07;512.00;2329.60
70151;DHT22;57517;43.562;19.540;2022-08-16T01:30:37;512.10;2304.00
70151;DHT22;57517;43.562;19.540;2022-08-16T01:33:05;487.20;2329.60
70151;DHT22;57517;43.562;19.540;2022-08-16T01:35:35;487.10;2355.20
70151;DHT22;57517;43.562;19.540;2022-08-16T01:38:31;487.00;2355.20
70151;DHT22;57517;43.562;19.540;2022-08-16T01:41:02;486.80;2355.20
70151;DHT22;57517;43.562;19.540;2022-08-16T01:43:29;486.70;2380.80
70151;DHT22;57517;43.562;19.540;2022-08-16T01:46:00;486.60;2380.80
70151;DHT22;57517;43.562;19.540;2022-08-16T01:48:31;486.80;2355.20
70151;DHT22;57517;43.562;19.540;2022-08-16T01:50:58;486.80;2355.20
70151;DHT22;57517;43.562;19.540;2022-08-16T01:53:25;486.80;2355.20
70151;DHT22;57517;43.562;19.540;2022-08-16T01:55:52;486.80;2355.20
70151;DHT22;57517;43.562;19.540;2022-08-16T01:58:18;486.70;2380.80
70151;DHT22;57517;43.562;19.540;2022-08-16T02:00:44;486.60;2380.80
70151;DHT22;57517;43.562;19.540;2022-08-16T02:03:11;486.60;2380.80
70151;DHT22;57517;43.562;19.540;2022-08-16T02:05:37;486.40;2380.80
70151;DHT22;57517;43.562;19.540;2022-08-16T02:08:06;486.40;2380.80
70151;DHT22;57517;43.562;19.540;2022-08-16T02:10:33;461.60;2380.80
70151;DHT22;57517;43.562;19.540;2022-08-16T02:13:00;461.70;2380.80
70151;DHT22;57517;43.562;19.540;2022-08-16T02:15:27;486.40;2380.80
70151;DHT22;57517;43.562;19.540;2022-08-16T02:17:55;486.50;2380.80
70151;DHT22;57517;43.562;19.540;2022-08-16T02:20:22;461.70;2380.80
70151;DHT22;57517;43.562;19.540;2022-08-16T02:22:48;461.50;2380.80
70151;DHT22;57517;43.562;19.540;2022-08-16T02:25:15;461.50;2380.80
70151;DHT22;57517;43.562;19.540;2022-08-16T02:27:43;461.40;2380.80
70151;DHT22;57517;43.562;19.540;2022-08-16T02:30:13;461.20;2380.80
70151;DHT22;57517;43.562;19.540;2022-08-16T02:32:41;461.20;2380.80
70151;DHT22;57517;43.562;19.540;2022-08-16T02:35:07;461.20;2380.80
70151;DHT22;57517;43.562;19.540;2022-08-16T02:37:33;461.40;2380.80
70151;DHT22;57517;43.562;19.540;2022-08-16T02:39:59;461.50;2380.80
70151;DHT22;57517;43.562;19.540;2022-08-16T02:42:25;461.50;2380.80
70151;DHT22;57517;43.562;19.540;2022-08-16T02:44:51;461.50;2380.80
70151;DHT22;57517;43.562;19.540;2022-08-16T02:47:17;461.50;2380.80
70151;DHT22;57517;43.562;19.540;2022-08-16T02:49:42;461.40;2380.80
70151;DHT22;57517;43.562;19.540;2022-08-16T02:52:11;461.50;2380.80
70151;DHT22;57517;43.562;19.540;2022-08-16T02:54:37;461.30;2380.80
70151;DHT22;57517;43.562;19.540;2022-08-16T02:57:03;461.30;2380.80
70151;DHT22;57517;43.562;19.540;2022-08-16T02:59:29;461.20;2380.80
70151;DHT22;57517;43.562;19.540;2022-08-16T03:01:55;461.20;2380.80
70151;DHT22;57517;43.562;19.540;2022-08-16T03:04:22;461.30;2380.80
70151;DHT22;57517;43.562;19.540;2022-08-16T03:06:48;461.50;2380.80
70151;DHT22;57517;43.562;19.540;2022-08-16T03:09:14;461.60;2380.80
70151;DHT22;57517;43.562;19.540;2022-08-16T03:11:40;461.70;2380.80
70151;DHT22;57517;43.562;19.540;2022-08-16T03:14:06;461.70;2380.80
70151;DHT22;57517;43.562;19.540;2022-08-16T03:16:32;461.60;2380.80
70151;DHT22;57517;43.562;19.540;2022-08-16T03:18:58;461.50;2380.80
70151;DHT22;57517;43.562;19.540;2022-08-16T03:21:23;461.50;2380.80
70151;DHT22;57517;43.562;19.540;2022-08-16T03:23:49;461.50;2380.80
70151;DHT22;57517;43.562;19.540;2022-08-16T03:26:16;461.30;2380.80
70151;DHT22;57517;43.562;19.540;2022-08-16T03:28:42;461.30;2380.80
70151;DHT22;57517;43.562;19.540;2022-08-16T03:31:08;461.30;2380.80
70151;DHT22;57517;43.562;19.540;2022-08-16T03:33:34;461.00;2380.80
70151;DHT22;57517;43.562;19.540;2022-08-16T03:36:01;461.10;2380.80
70151;DHT22;57517;43.562;19.540;2022-08-16T03:38:28;461.20;2380.80
70151;DHT22;57517;43.562;19.540;2022-08-16T03:40:56;461.20;2380.80
70151;DHT22;57517;43.562;19.540;2022-08-16T03:43:22;461.20;2380.80
70151;DHT22;57517;43.562;19.540;2022-08-16T03:45:53;461.00;2380.80
70151;DHT22;57517;43.562;19.540;2022-08-16T03:48:22;461.20;2380.80
70151;DHT22;57517;43.562;19.540;2022-08-16T03:50:48;461.30;2380.80
70151;DHT22;57517;43.562;19.540;2022-08-16T03:53:14;461.20;2380.80
70151;DHT22;57517;43.562;19.540;2022-08-16T03:55:40;461.20;2380.80
70151;DHT22;57517;43.562;19.540;2022-08-16T03:58:06;461.20;2380.80
70151;DHT22;57517;43.562;19.540;2022-08-16T04:00:32;461.10;2380.80
70151;DHT22;57517;43.562;19.540;2022-08-16T04:03:00;461.00;2380.80
70151;DHT22;57517;43.562;19.540;2022-08-16T04:05:32;461.00;2380.80
70151;DHT22;57517;43.562;19.540;2022-08-16T04:08:01;460.90;2380.80
70151;DHT22;57517;43.562;19.540;2022-08-16T04:10:27;460.90;2380.80
70151;DHT22;57517;43.562;19.540;2022-08-16T04:12:52;460.90;2380.80
70151;DHT22;57517;43.562;19.540;2022-08-16T04:15:18;461.00;2380.80
70151;DHT22;57517;43.562;19.540;2022-08-16T04:17:44;461.00;2380.80
70151;DHT22;57517;43.562;19.540;2022-08-16T04:20:11;461.00;2380.80
70151;DHT22;57517;43.562;19.540;2022-08-16T04:22:38;461.20;2380.80
70151;DHT22;57517;43.562;19.540;2022-08-16T04:25:05;461.10;2380.80
70151;DHT22;57517;43.562;19.540;2022-08-16T04:27:32;461.30;2380.80
70151;DHT22;57517;43.562;19.540;2022-08-16T04:29:59;461.60;2380.80
70151;DHT22;57517;43.562;19.540;2022-08-16T04:32:24;461.70;2355.20
70151;DHT22;57517;43.562;19.540;2022-08-16T04:34:50;486.40;2355.20
70151;DHT22;57517;43.562;19.540;2022-08-16T04:37:16;486.50;2329.60
70151;DHT22;57517;43.562;19.540;2022-08-16T04:39:42;461.60;2380.80
70151;DHT22;57517;43.562;19.540;2022-08-16T04:42:08;461.60;2380.80
70151;DHT22;57517;43.562;19.540;2022-08-16T04:44:34;461.60;2380.80
70151;DHT22;57517;43.562;19.540;2022-08-16T04:46:59;461.70;2355.20
70151;DHT22;57517;43.562;19.540;2022-08-16T04:49:25;461.70;2355.20
70151;DHT22;57517;43.562;19.540;2022-08-16T04:51:51;461.70;2355.20
70151;DHT22;57517;43.562;19.540;2022-08-16T04:54:17;486.40;2329.60
70151;DHT22;57517;43.562;19.540;2022-08-16T04:56:43;486.40;2329.60
70151;DHT22;57517;43.562;19.540;2022-08-16T04:59:09;486.40;2355.20
70151;DHT22;57517;43.562;19.540;2022-08-16T05:01:36;486.50;2329.60
70151;DHT22;57517;43.562;19.540;2022-08-16T05:04:02;486.60;2304.00
70151;DHT22;57517;43.562;19.540;2022-08-16T05:06:30;486.80;2278.40
70151;DHT22;57517;43.562;19.540;2022-08-16T05:08:56;486.80;2278.40
70151;DHT22;57517;43.562;19.540;2022-08-16T05:11:22;486.90;2278.40
70151;DHT22;57517;43.562;19.540;2022-08-16T05:13:49;537.80;2150.40
70151;DHT22;57517;43.562;19.540;2022-08-16T05:16:18;589.60;1868.80
70151;DHT22;57517;43.562;19.540;2022-08-16T05:18:45;640.30;1689.60
70151;DHT22;57517;43.562;19.540;2022-08-16T05:21:11;691.40;1561.60
70151;DHT22;57517;43.562;19.540;2022-08-16T05:23:37;716.90;1484.80
70151;DHT22;57517;43.562;19.540;2022-08-16T05:26:03;717.40;1433.60
70151;DHT22;57517;43.562;19.540;2022-08-16T05:28:29;742.80;1382.40
70151;DHT22;57517;43.562;19.540;2022-08-16T05:30:55;768.20;1305.60
70151;DHT22;57517;43.562;19.540;2022-08-16T05:33:21;743.20;1331.20
70151;DHT22;57517;43.562;19.540;2022-08-16T05:35:48;742.90;1331.20
70151;DHT22;57517;43.562;19.540;2022-08-16T05:38:14;743.10;1331.20
70151;DHT22;57517;43.562;19.540;2022-08-16T05:40:40;768.20;1280.00
70151;DHT22;57517;43.562;19.540;2022-08-16T05:43:07;768.40;1254.40
70151;DHT22;57517;43.562;19.540;2022-08-16T05:45:33;794.30;1228.80
70151;DHT22;57517;43.562;19.540;2022-08-16T05:47:59;794.30;1228.80
70151;DHT22;57517;43.562;19.540;2022-08-16T05:50:26;820.00;1126.40
70151;DHT22;57517;43.562;19.540;2022-08-16T05:52:52;845.50;1100.80
70151;DHT22;57517;43.562;19.540;2022-08-16T05:55:18;870.60;1049.60
70151;DHT22;57517;43.562;19.540;2022-08-16T05:57:45;896.30;998.40
70151;DHT22;57517;43.562;19.540;2022-08-16T06:00:13;896.60;972.80
70151;DHT22;57517;43.562;19.540;2022-08-16T06:02:40;896.10;998.40
70151;DHT22;57517;43.562;19.540;2022-08-16T06:05:07;870.90;1024.00
70151;DHT22;57517;43.562;19.540;2022-08-16T06:07:33;871.10;1024.00
70151;DHT22;57517;43.562;19.540;2022-08-16T06:09:59;870.70;1024.00
70151;DHT22;57517;43.562;19.540;2022-08-16T06:12:27;871.10;998.40
70151;DHT22;57517;43.562;19.540;2022-08-16T06:14:53;871.10;1024.00
70151;DHT22;57517;43.562;19.540;2022-08-16T06:17:23;870.70;1024.00
70151;DHT22;57517;43.562;19.540;2022-08-16T06:19:49;896.20;972.80
70151;DHT22;57517;43.562;19.540;2022-08-16T06:22:15;871.30;998.40
70151;DHT22;57517;43.562;19.540;2022-08-16T06:24:41;896.10;998.40
70151;DHT22;57517;43.562;19.540;2022-08-16T06:27:09;921.80;947.20
70151;DHT22;57517;43.562;19.540;2022-08-16T06:29:35;947.30;896.00
70151;DHT22;57517;43.562;19.540;2022-08-16T06:32:01;922.30;896.00
70151;DHT22;57517;43.562;19.540;2022-08-16T06:34:27;921.60;947.20
70151;DHT22;57517;43.562;19.540;2022-08-16T06:36:53;922.20;921.60
70151;DHT22;57517;43.562;19.540;2022-08-16T06:39:19;921.80;921.60
70151;DHT22;57517;43.562;19.540;2022-08-16T06:41:45;922.20;896.00
70151;DHT22;57517;43.562;19.540;2022-08-16T06:44:10;921.60;947.20
70151;DHT22;57517;43.562;19.540;2022-08-16T06:46:37;922.30;921.60
70151;DHT22;57517;43.562;19.540;2022-08-16T06:49:06;947.30;896.00
70151;DHT22;57517;43.562;19.540;2022-08-16T06:51:33;972.90;870.40
70151;DHT22;57517;43.562;19.540;2022-08-16T06:53:59;973.10;844.80
70151;DHT22;57517;43.562;19.540;2022-08-16T06:56:26;973.00;870.40
70151;DHT22;57517;43.562;19.540;2022-08-16T06:58:52;973.40;844.80
70151;DHT22;57517;43.562;19.540;2022-08-16T07:01:19;998.40;844.80
70151;DHT22;57517;43.562;19.540;2022-08-16T07:03:46;973.50;819.20
70151;DHT22;57517;43.562;19.540;2022-08-16T07:06:12;998.60;844.80
70151;DHT22;57517;43.562;19.540;2022-08-16T07:08:38;973.60;819.20
70151;DHT22;57517;43.562;19.540;2022-08-16T07:11:04;948.10;844.80
70151;DHT22;57517;43.562;19.540;2022-08-16T07:13:30;947.90;844.80
70151;DHT22;57517;43.562;19.540;2022-08-16T07:15:57;947.50;870.40
70151;DHT22;57517;43.562;19.540;2022-08-16T07:18:24;948.10;844.80
70151;DHT22;57517;43.562;19.540;2022-08-16T07:20:50;948.10;844.80
70151;DHT22;57517;43.562;19.540;2022-08-16T07:23:18;947.50;870.40
70151;DHT22;57517;43.562;19.540;2022-08-16T07:25:44;947.40;870.40
70151;DHT22;57517;43.562;19.540;2022-08-16T07:28:15;948.00;870.40
70151;DHT22;57517;43.562;19.540;2022-08-16T07:30:42;922.30;896.00
70151;DHT22;57517;43.562;19.540;2022-08-16T07:33:08;896.90;921.60
70151;DHT22;57517;43.562;19.540;2022-08-16T07:35:35;947.50;870.40
70151;DHT22;57517;43.562;19.540;2022-08-16T07:38:01;922.10;921.60
70151;DHT22;57517;43.562;19.540;2022-08-16T07:40:27;922.00;921.60
70151;DHT22;57517;43.562;19.540;2022-08-16T07:42:53;947.30;870.40
70151;DHT22;57517;43.562;19.540;2022-08-16T07:45:21;921.90;921.60
70151;DHT22;57517;43.562;19.540;2022-08-16T07:47:47;922.20;921.60
70151;DHT22;57517;43.562;19.540;2022-08-16T07:50:13;922.00;947.20
70151;DHT22;57517;43.562;19.540;2022-08-16T07:52:42;947.30;921.60
70151;DHT22;57517;43.562;19.540;2022-08-16T07:55:09;948.00;870.40
70151;DHT22;57517;43.562;19.540;2022-08-16T07:57:35;973.10;870.40
70151;DHT22;57517;43.562;19.540;2022-08-16T08:00:01;922.10;921.60
70151;DHT22;57517;43.562;19.540;2022-08-16T08:02:27;870.90;998.40
70151;DHT22;57517;43.562;19.540;2022-08-16T08:04:54;845.30;1049.60
70151;DHT22;57517;43.562;19.540;2022-08-16T08:07:21;845.20;1075.20
70151;DHT22;57517;43.562;19.540;2022-08-16T08:09:46;845.20;1049.60
70151;DHT22;57517;43.562;19.540;2022-08-16T08:12:13;820.10;1075.20
70151;DHT22;57517;43.562;19.540;2022-08-16T08:17:05;820.10;1049.60
70151;DHT22;57517;43.562;19.540;2022-08-16T08:19:33;819.40;1100.80
70151;DHT22;57517;43.562;19.540;2022-08-16T08:21:59;768.70;1177.60
70151;DHT22;57517;43.562;19.540;2022-08-16T08:24:25;768.10;1254.40
70151;DHT22;57517;43.562;19.540;2022-08-16T08:26:53;742.70;1305.60
70151;DHT22;57517;43.562;19.540;2022-08-16T08:29:19;742.40;1382.40
70151;DHT22;57517;43.562;19.540;2022-08-16T08:31:45;717.70;1331.20
70151;DHT22;57517;43.562;19.540;2022-08-16T08:34:11;717.40;1356.80
70151;DHT22;57517;43.562;19.540;2022-08-16T08:36:37;717.40;1356.80
70151;DHT22;57517;43.562;19.540;2022-08-16T08:39:04;717.20;1382.40
70151;DHT22;57517;43.562;19.540;2022-08-16T08:41:30;717.20;1408.00
70151;DHT22;57517;43.562;19.540;2022-08-16T08:43:57;717.30;1382.40
70151;DHT22;57517;43.562;19.540;2022-08-16T08:46:24;717.30;1382.40
70151;DHT22;57517;43.562;19.540;2022-08-16T08:48:52;717.30;1382.40
70151;DHT22;57517;43.562;19.540;2022-08-16T08:51:18;717.30;1408.00
70151;DHT22;57517;43.562;19.540;2022-08-16T08:53:45;717.30;1382.40
70151;DHT22;57517;43.562;19.540;2022-08-16T08:56:12;717.20;1382.40
70151;DHT22;57517;43.562;19.540;2022-08-16T08:58:38;717.30;1356.80
70151;DHT22;57517;43.562;19.540;2022-08-16T09:01:05;717.60;1331.20
70151;DHT22;57517;43.562;19.540;2022-08-16T09:03:32;717.60;1280.00
70151;DHT22;57517;43.562;19.540;2022-08-16T09:05:59;717.50;1254.40
70151;DHT22;57517;43.562;19.540;2022-08-16T09:08:25;717.60;1254.40
70151;DHT22;57517;43.562;19.540;2022-08-16T09:10:54;717.40;1280.00
70151;DHT22;57517;43.562;19.540;2022-08-16T09:13:22;717.60;1254.40
70151;DHT22;57517;43.562;19.540;2022-08-16T09:15:52;717.40;1280.00
70151;DHT22;57517;43.562;19.540;2022-08-16T09:18:21;717.70;1254.40
70151;DHT22;57517;43.562;19.540;2022-08-16T09:20:48;717.70;1254.40
70151;DHT22;57517;43.562;19.540;2022-08-16T09:23:17;717.70;1280.00
70151;DHT22;57517;43.562;19.540;2022-08-16T09:25:44;717.50;1280.00
70151;DHT22;57517;43.562;19.540;2022-08-16T09:28:10;717.40;1280.00
70151;DHT22;57517;43.562;19.540;2022-08-16T09:30:36;717.30;1280.00
70151;DHT22;57517;43.562;19.540;2022-08-16T09:33:03;717.30;1280.00
70151;DHT22;57517;43.562;19.540;2022-08-16T09:35:30;717.20;1280.00
70151;DHT22;57517;43.562;19.540;2022-08-16T09:37:56;717.20;1305.60
70151;DHT22;57517;43.562;19.540;2022-08-16T09:40:22;717.10;1331.20
70151;DHT22;57517;43.562;19.540;2022-08-16T09:42:49;716.90;1356.80
70151;DHT22;57517;43.562;19.540;2022-08-16T09:45:15;692.10;1382.40
70151;DHT22;57517;43.562;19.540;2022-08-16T09:47:42;716.80;1408.00
70151;DHT22;57517;43.562;19.540;2022-08-16T09:50:10;692.10;1382.40
70151;DHT22;57517;43.562;19.540;2022-08-16T09:52:37;692.10;1382.40
70151;DHT22;57517;43.562;19.540;2022-08-16T09:55:08;692.00;1382.40
70151;DHT22;57517;43.562;19.540;2022-08-16T09:57:38;692.00;1382.40
70151;DHT22;57517;43.562;19.540;2022-08-16T10:00:08;692.10;1331.20
70151;DHT22;57517;43.562;19.540;2022-08-16T10:02:34;692.10;1356.80
70151;DHT22;57517;43.562;19.540;2022-08-16T10:05:01;716.80;1382.40
70151;DHT22;57517;43.562;19.540;2022-08-16T10:07:28;692.10;1331.20
70151;DHT22;57517;43.562;19.540;2022-08-16T10:09:54;692.10;1331.20
70151;DHT22;57517;43.562;19.540;2022-08-16T10:12:20;716.80;1356.80
70151;DHT22;57517;43.562;19.540;2022-08-16T10:15:05;716.80;1356.80
70151;DHT22;57517;43.562;19.540;2022-08-16T10:17:34;716.90;1356.80
70151;DHT22;57517;43.562;19.540;2022-08-16T10:20:00;716.90;1331.20
70151;DHT22;57517;43.562;19.540;2022-08-16T10:22:26;717.00;1331.20
70151;DHT22;57517;43.562;19.540;2022-08-16T10:24:52;716.90;1331.20
70151;DHT22;57517;43.562;19.540;2022-08-16T10:27:18;717.00;1305.60
70151;DHT22;57517;43.562;19.540;2022-08-16T10:29:45;717.10;1331.20
70151;DHT22;57517;43.562;19.540;2022-08-16T10:32:11;717.00;1331.20
70151;DHT22;57517;43.562;19.540;2022-08-16T10:34:37;716.90;1356.80
70151;DHT22;57517;43.562;19.540;2022-08-16T10:37:03;717.00;1331.20
70151;DHT22;57517;43.562;19.540;2022-08-16T10:39:29;717.00;1331.20
70151;DHT22;57517;43.562;19.540;2022-08-16T10:41:56;717.00;1356.80
70151;DHT22;57517;43.562;19.540;2022-08-16T10:44:21;717.10;1356.80
70151;DHT22;57517;43.562;19.540;2022-08-16T10:46:47;717.20;1356.80
70151;DHT22;57517;43.562;19.540;2022-08-16T10:49:13;717.20;1356.80
70151;DHT22;57517;43.562;19.540;2022-08-16T10:51:40;717.20;1356.80
70151;DHT22;57517;43.562;19.540;2022-08-16T10:54:06;717.20;1331.20
70151;DHT22;57517;43.562;19.540;2022-08-16T10:56:33;717.20;1331.20
70151;DHT22;57517;43.562;19.540;2022-08-16T10:58:59;717.20;1305.60
70151;DHT22;57517;43.562;19.540;2022-08-16T11:01:25;717.20;1280.00
70151;DHT22;57517;43.562;19.540;2022-08-16T11:03:52;717.30;1280.00
70151;DHT22;57517;43.562;19.540;2022-08-16T11:06:18;717.60;1305.60
70151;DHT22;57517;43.562;19.540;2022-08-16T11:08:44;742.50;1305.60
70151;DHT22;57517;43.562;19.540;2022-08-16T11:11:10;742.70;1254.40
70151;DHT22;57517;43.562;19.540;2022-08-16T11:13:37;742.80;1228.80
70151;DHT22;57517;43.562;19.540;2022-08-16T11:16:04;742.90;1228.80
70151;DHT22;57517;43.562;19.540;2022-08-16T11:18:30;742.90;1228.80
70151;DHT22;57517;43.562;19.540;2022-08-16T11:20:56;742.90;1203.20
70151;DHT22;57517;43.562;19.540;2022-08-16T11:23:25;742.90;1228.80
70151;DHT22;57517;43.562;19.540;2022-08-16T11:25:51;743.00;1228.80
70151;DHT22;57517;43.562;19.540;2022-08-16T11:28:17;743.10;1228.80
70151;DHT22;57517;43.562;19.540;2022-08-16T11:30:44;743.10;1203.20
70151;DHT22;57517;43.562;19.540;2022-08-16T11:33:11;743.10;1203.20
70151;DHT22;57517;43.562;19.540;2022-08-16T11:35:38;743.30;1177.60
70151;DHT22;57517;43.562;19.540;2022-08-16T11:38:11;743.30;1177.60
70151;DHT22;57517;43.562;19.540;2022-08-16T11:40:54;768.00;1152.00
70151;DHT22;57517;43.562;19.540;2022-08-16T11:43:27;743.30;1100.80
70151;DHT22;57517;43.562;19.540;2022-08-16T11:45:54;768.00;1126.40
70151;DHT22;57517;43.562;19.540;2022-08-16T11:48:26;768.00;1152.00
70151;DHT22;57517;43.562;19.540;2022-08-16T11:50:53;743.30;1152.00
70151;DHT22;57517;43.562;19.540;2022-08-16T11:53:19;743.30;1152.00
70151;DHT22;57517;43.562;19.540;2022-08-16T11:55:46;743.20;1152.00
70151;DHT22;57517;43.562;19.540;2022-08-16T11:58:12;743.20;1152.00
70151;DHT22;57517;43.562;19.540;2022-08-16T12:00:41;743.10;1152.00
70151;DHT22;57517;43.562;19.540;2022-08-16T12:03:07;743.00;1177.60
70151;DHT22;57517;43.562;19.540;2022-08-16T12:05:35;742.90;1177.60
70151;DHT22;57517;43.562;19.540;2022-08-16T12:08:04;742.90;1177.60
70151;DHT22;57517;43.562;19.540;2022-08-16T12:10:33;742.80;1177.60
70151;DHT22;57517;43.562;19.540;2022-08-16T12:12:58;742.90;1177.60
70151;DHT22;57517;43.562;19.540;2022-08-16T12:15:26;742.90;1177.60
70151;DHT22;57517;43.562;19.540;2022-08-16T12:17:53;742.80;1203.20
70151;DHT22;57517;43.562;19.540;2022-08-16T12:20:23;742.90;1228.80
70151;DHT22;57517;43.562;19.540;2022-08-16T12:22:51;742.90;1254.40
70151;DHT22;57517;43.562;19.540;2022-08-16T12:25:19;742.80;1280.00
70151;DHT22;57517;43.562;19.540;2022-08-16T12:27:45;742.70;1305.60
70151;DHT22;57517;43.562;19.540;2022-08-16T12:30:14;742.70;1305.60
70151;DHT22;57517;43.562;19.540;2022-08-16T12:32:41;742.70;1331.20
70151;DHT22;57517;43.562;19.540;2022-08-16T12:35:10;742.70;1331.20
70151;DHT22;57517;43.562;19.540;2022-08-16T12:37:37;742.60;1331.20
70151;DHT22;57517;43.562;19.540;2022-08-16T12:40:04;742.60;1305.60
70151;DHT22;57517;43.562;19.540;2022-08-16T12:42:32;742.70;1305.60
70151;DHT22;57517;43.562;19.540;2022-08-16T12:45:00;742.70;1305.60
70151;DHT22;57517;43.562;19.540;2022-08-16T12:47:26;742.80;1280.00
70151;DHT22;57517;43.562;19.540;2022-08-16T12:50:10;742.80;1305.60
70151;DHT22;57517;43.562;19.540;2022-08-16T12:52:36;742.90;1254.40
70151;DHT22;57517;43.562;19.540;2022-08-16T12:55:03;743.00;1203.20
70151;DHT22;57517;43.562;19.540;2022-08-16T12:57:31;743.00;1228.80
70151;DHT22;57517;43.562;19.540;2022-08-16T12:59:58;743.10;1254.40
70151;DHT22;57517;43.562;19.540;2022-08-16T13:02:24;743.00;1203.20
70151;DHT22;57517;43.562;19.540;2022-08-16T13:04:51;743.00;1203.20
70151;DHT22;57517;43.562;19.540;2022-08-16T13:07:17;743.00;1203.20
70151;DHT22;57517;43.562;19.540;2022-08-16T13:09:43;743.10;1203.20
70151;DHT22;57517;43.562;19.540;2022-08-16T13:12:23;743.10;1203.20
70151;DHT22;57517;43.562;19.540;2022-08-16T13:14:52;743.20;1152.00
70151;DHT22;57517;43.562;19.540;2022-08-16T13:17:22;743.30;1152.00
70151;DHT22;57517;43.562;19.540;2022-08-16T13:19:50;743.30;1152.00
70151;DHT22;57517;43.562;19.540;2022-08-16T13:22:17;743.20;1152.00
70151;DHT22;57517;43.562;19.540;2022-08-16T13:24:43;743.30;1126.40
70151;DHT22;57517;43.562;19.540;2022-08-16T13:27:09;768.00;1126.40
70151;DHT22;57517;43.562;19.540;2022-08-16T13:29:34;743.30;1152.00
70151;DHT22;57517;43.562;19.540;2022-08-16T13:32:00;768.00;1152.00
70151;DHT22;57517;43.562;19.540;2022-08-16T13:34:26;768.00;1203.20
70151;DHT22;57517;43.562;19.540;2022-08-16T13:36:53;743.30;1152.00
70151;DHT22;57517;43.562;19.540;2022-08-16T13:39:18;743.30;1152.00
70151;DHT22;57517;43.562;19.540;2022-08-16T13:41:44;768.00;1152.00
70151;DHT22;57517;43.562;19.540;2022-08-16T13:44:10;768.10;1177.60
70151;DHT22;57517;43.562;19.540;2022-08-16T13:46:36;768.20;1177.60
70151;DHT22;57517;43.562;19.540;2022-08-16T13:49:02;768.20;1152.00
70151;DHT22;57517;43.562;19.540;2022-08-16T13:51:29;768.10;1228.80
70151;DHT22;57517;43.562;19.540;2022-08-16T13:53:57;768.20;1228.80
70151;DHT22;57517;43.562;19.540;2022-08-16T13:56:23;768.10;1228.80
70151;DHT22;57517;43.562;19.540;2022-08-16T13:58:52;768.20;1254.40
70151;DHT22;57517;43.562;19.540;2022-08-16T14:01:18;768.20;1254.40
70151;DHT22;57517;43.562;19.540;2022-08-16T14:03:44;768.20;1177.60
70151;DHT22;57517;43.562;19.540;2022-08-16T14:06:12;768.20;1152.00
70151;DHT22;57517;43.562;19.540;2022-08-16T14:08:39;768.10;1280.00
70151;DHT22;57517;43.562;19.540;2022-08-16T14:11:05;768.20;1280.00
70151;DHT22;57517;43.562;19.540;2022-08-16T14:13:34;768.20;1203.20
70151;DHT22;57517;43.562;19.540;2022-08-16T14:16:00;768.10;1228.80
70151;DHT22;57517;43.562;19.540;2022-08-16T14:18:26;768.00;1228.80
70151;DHT22;57517;43.562;19.540;2022-08-16T14:20:53;768.00;1203.20
70151;DHT22;57517;43.562;19.540;2022-08-16T14:23:19;743.30;1177.60
70151;DHT22;57517;43.562;19.540;2022-08-16T14:25:46;743.30;1254.40
70151;DHT22;57517;43.562;19.540;2022-08-16T14:28:11;743.20;1203.20
70151;DHT22;57517;43.562;19.540;2022-08-16T14:30:37;743.20;1177.60
70151;DHT22;57517;43.562;19.540;2022-08-16T14:33:04;743.30;1203.20
70151;DHT22;57517;43.562;19.540;2022-08-16T14:35:31;743.30;1228.80
70151;DHT22;57517;43.562;19.540;2022-08-16T14:37:59;768.10;1228.80
70151;DHT22;57517;43.562;19.540;2022-08-16T14:40:25;768.20;1228.80